San Francisco, California
Traffic Map
Current Weather Conditions
San Francisco, California
Few Clouds
Few Clouds
28°
Feels Like: 28°
Wind Chill: 28° Ceiling: Unl
Heat Index: 28° Visibility: 10mi
Dew Point: Wind: 13mph
Humidity: 19% Direction: 290° (WNW)
Pressure: 29.91in Gusts: 0mph
Raw Report DataKSFO 270156Z 29011KT 10SM FEW075 28/03 A2991 RMK AO2 SLP127 T02830028
Traffic Incident Summary
Active as of:
Severity:
Category:
InformationThere was an issue retrieving the traffic information for this location. Please try a different location or try again shortly.
Advertisements
Track Severe Weather on mobile